Participated 7 times
Between 1997 and 2003
Damien Nazon, France
Tour de France 2026 starts from Edinburgh, Scotland in

Stats and Facts from
Tour de France.

2026   2025   2024   2023  2022  2021  2020  2019   2018  2017   2016   2015  2014  2013   2012   2011  2010   2009   2008   2007   2006   2005   2004   2003   2002   2001   2000   1999   1998   1997  1996   1995   1994   1993   1992  1991   1990   1989   1988   1987   1986   1985   1984   1983  1982  1981   1980   1979  1978  1977   1976  1975  1974  1973   1972   1971   1970  1969   1968   1967   1966   1965  1964  1963   1962   1961   1960   1959   1958   1957  1956   1955   1954   1953   1952  1951  1950  1949   1948  1947  1939   1938   1937   1936   1935   1934   1933  1932   1931   1930  1929   1928   1927   1926  1925  1924  1923   1922   1921   1920   1919  1914   1913   1912   1911   1910  1909   1908   1907   1906  1905  1904   1903 

Tourstats
Sitemap

After stage 21 - 2026:
 16451 starters.
  5513 different riders.
  689 teams.
  2419 stages.
  470 restdays.
  469752.50 km.
  5946 abandoned riders.

Click map for 2014 route.
Facts from Tour de France 2014 Additional info and images from 2014.
  |   Stages.  |   Stage winners.  |   Days in jerseys.  |   Teams.  |   All riders.  |   All riders by age.  |   All riders from.  |  

  |   Rookies.  |   Withdrawls.  |   Average speed.  |   GC.  |   Polka  |   Green  |   White  |   Summits. (In tour)  |   Miscellaneous.  |  

Stage 10 on July 14th. 2014
Pick a stage:  1  2  3  4  5  6  7  8  9  10  11  12  13  14  15  16  17  18  19  20  21  

After stage 10:    Vincenzo Nibali    Joaquin Rodriguez    Peter Sagan    Romain Bardet  
  MulhouseLa Planche des Belles Filles | Dist: 161.50km. | Winner: Vincenzo Nibali

Podium
2  Col du Firstplan Thomas  Voecklerafter30.50 km.

1  Petit Ballon Joaquin Rodriguezafter54.50 km.

1  Col du Platzerwasel Joaquin Rodriguezafter71.50 km.

2  Col d'Oderen Joaquin Rodriguezafter103.50 km.

3  Col des Croix Joaquin Rodriguezafter125.50 km.

1  Col des Chevrères Joaquin Rodriguezafter143.50 km.

1  La Planche des Belles Filles Vincenzo Nibaliafter161.50 km.


Average speed for all riders in stage:  33,719 km./hr.

1
 Vincenzo Nibali  Astana Pro Team04h 27' 26"=36,233  km/h

2
 Thibaut Pinot  FDJ.fr04h 27' 41"+  00:00:15 =36,199  km/h

3
 Alejandro Valverde  Movistar04h 27' 46"+  00:00:20 =36,188  km/h

4  Jean-Christophe Peraud  AG2R La Mondiale04h 27' 46"+  00:00:20 =36,188  km/h

5  Romain Bardet  AG2R La Mondiale04h 27' 48"+  00:00:22 =36,184  km/h

6  Tejay Van Garderen  BMC04h 27' 48"+  00:00:22 =36,184  km/h

7  Richie Porte  Sky Procycling04h 27' 51"+  00:00:25 =36,177  km/h

8  Leopold König  NetApp – Endura04h 28' 16"+  00:00:50 =36,121  km/h

9  Joaquin Rodriguez  Katusha04h 28' 18"+  00:00:52 =36,116  km/h

10  Mikel Nieve  Sky Procycling04h 28' 20"+  00:00:54 =36,112  km/h

11  Daniel Navarro  Cofidis – Solutions Crédits04h 28' 30"+  00:01:04 =36,089  km/h

12  Bauke Mollema  Belkin Pro Cycling04h 28' 32"+  00:01:06 =36,085  km/h

13  Rui Costa  Lampre-Merida04h 28' 32"+  00:01:06 =36,085  km/h

14  John Gadret  Movistar04h 28' 34"+  00:01:08 =36,080  km/h

15  Haimar  Zubeldía  Trek Factory Racing04h 28' 34"+  00:01:08 =36,080  km/h

16  Fränk Schleck  Trek Factory Racing04h 28' 34"+  00:01:08 =36,080  km/h

17  Jurgen Van Den Broeck  Lotto-Belisol04h 28' 42"+  00:01:16 =36,063  km/h

18  Christopher Horner  Lampre-Merida04h 28' 47"+  00:01:21 =36,051  km/h

19  Geraint Thomas  Sky Procycling04h 28' 49"+  00:01:23 =36,047  km/h

20  Simon Špilak  Katusha04h 28' 52"+  00:01:26 =36,040  km/h

21  Christophe Riblon  AG2R La Mondiale04h 29' 08"+  00:01:42 =36,004  km/h

22  Laurens Ten Dam  Belkin Pro Cycling04h 29' 24"+  00:01:58 =35,969  km/h

23  Luis Angel Mate  Cofidis – Solutions Crédits04h 29' 27"+  00:02:01 =35,962  km/h

24  Michal Kwiatkowski  Omega Pharma – Quick Step04h 29' 39"+  00:02:13 =35,935  km/h

25  Jakob Fuglsang  Astana Pro Team04h 30' 13"+  00:02:47 =35,860  km/h

26  Michele Scarponi  Astana Pro Team04h 31' 15"+  00:03:49 =35,724  km/h

27  Giovanni Visconti  Movistar04h 31' 37"+  00:04:11 =35,675  km/h

28  Pierre Rolland  Europcar04h 31' 40"+  00:04:14 =35,669  km/h

29  Steven Kruijswijk  Belkin Pro Cycling04h 31' 42"+  00:04:16 =35,664  km/h

30  Nicolas Edet  Cofidis – Solutions Crédits04h 31' 47"+  00:04:21 =35,653  km/h

31  Cyril Gautier  Europcar04h 31' 52"+  00:04:26 =35,642  km/h

32  Brice Feillu  Bretagne-Séché Environnement04h 32' 00"+  00:04:34 =35,625  km/h

33  Tony Gallopin  Lotto-Belisol04h 32' 12"+  00:04:46 =35,599  km/h

34  José Serpa  Lampre-Merida04h 32' 12"+  00:04:46 =35,599  km/h

35  Yury  Trofimov  Katusha04h 32' 33"+  00:05:07 =35,553  km/h

36  Jan Bakelants  Omega Pharma – Quick Step04h 32' 50"+  00:05:24 =35,516  km/h

37  Peter Velits  BMC04h 33' 08"+  00:05:42 =35,477  km/h

38  Mikaël Cherel  AG2R La Mondiale04h 33' 10"+  00:05:44 =35,473  km/h

39  Thomas  Voeckler  Europcar04h 34' 30"+  00:07:04 =35,301  km/h

40  Amaël Moinard  BMC04h 34' 32"+  00:07:06 =35,296  km/h

41  Tanel Kangert  Astana Pro Team04h 34' 40"+  00:07:14 =35,279  km/h

42  Marcel Wyss  IAM Cycling04h 35' 25"+  00:07:59 =35,183  km/h

43  Ben Gastauer  AG2R La Mondiale04h 35' 43"+  00:08:17 =35,145  km/h

44  Arnold Jeannesson  FDJ.fr04h 35' 43"+  00:08:17 =35,145  km/h

45  Tom Dumoulin  Giant-Shimano04h 36' 11"+  00:08:45 =35,085  km/h

46  Bram Tankink  Belkin Pro Cycling04h 37' 19"+  00:09:53 =34,942  km/h

47  Peter Stetina  BMC04h 37' 38"+  00:10:12 =34,902  km/h

48  Andrew Talansky  Garmin Sharp04h 37' 38"+  00:10:12 =34,902  km/h

49  Tom-Jelte Slagter  Garmin Sharp04h 37' 38"+  00:10:12 =34,902  km/h

50  Sylvain Chavanel  IAM Cycling04h 37' 38"+  00:10:12 =34,902  km/h

51  Ion Izagirre  Movistar04h 38' 03"+  00:10:37 =34,850  km/h

52  Sep Vanmarcke  Belkin Pro Cycling04h 39' 24"+  00:11:58 =34,681  km/h

53  Kristijan Ðurasek  Lampre-Merida04h 41' 34"+  00:14:08 =34,415  km/h

54  Benjamin King  Garmin Sharp04h 41' 34"+  00:14:08 =34,415  km/h

55  Martin Elmiger  IAM Cycling04h 41' 34"+  00:14:08 =34,415  km/h

56  Vasil Kiryienka  Sky Procycling04h 42' 54"+  00:15:28 =34,252  km/h

57  Sébastien Minard  AG2R La Mondiale04h 43' 33"+  00:16:07 =34,174  km/h

58  José Joaquin Rojas  Movistar04h 43' 33"+  00:16:07 =34,174  km/h

59  David de la Cruz  NetApp – Endura04h 43' 33"+  00:16:07 =34,174  km/h

60  Jens Voigt  Trek Factory Racing04h 43' 33"+  00:16:07 =34,174  km/h

61  Rafael Valls Ferri  Lampre-Merida04h 43' 33"+  00:16:07 =34,174  km/h

62  Johan Vansummeren  Garmin Sharp04h 43' 33"+  00:16:07 =34,174  km/h

63  Jan Bárta  NetApp – Endura04h 43' 33"+  00:16:07 =34,174  km/h

64  Nelson Oliveira  Lampre-Merida04h 43' 33"+  00:16:07 =34,174  km/h

65  Michał Gołaś  Omega Pharma – Quick Step04h 43' 33"+  00:16:07 =34,174  km/h

66  Fabian Cancellara  Trek Factory Racing04h 43' 33"+  00:16:07 =34,174  km/h

67  Tony Martin  Omega Pharma – Quick Step04h 43' 33"+  00:16:07 =34,174  km/h

68  Alexandre Pichot  Europcar04h 43' 33"+  00:16:07 =34,174  km/h

69  Yukiya  Arashiro  Europcar04h 43' 33"+  00:16:07 =34,174  km/h

70  Michael Schär  BMC04h 43' 33"+  00:16:07 =34,174  km/h

71  Rein Taaramäe  Cofidis – Solutions Crédits04h 43' 42"+  00:16:16 =34,156  km/h

72  Greg Van Avermaet  BMC04h 43' 46"+  00:16:20 =34,148  km/h

73  Blel Kadri  AG2R La Mondiale04h 45' 11"+  00:17:45 =33,978  km/h

74  Jens Keukeleire  Orica-GreenEDGE04h 46' 32"+  00:19:06 =33,818  km/h

75  Adam Hansen  Lotto-Belisol04h 46' 32"+  00:19:06 =33,818  km/h

76  Lars Bak  Lotto-Belisol04h 46' 32"+  00:19:06 =33,818  km/h

77  Maxim Iglinskiy  Astana Pro Team04h 46' 36"+  00:19:10 =33,810  km/h

78  Arthur Vichot  FDJ.fr04h 47' 09"+  00:19:43 =33,745  km/h

79  Matthieu Ladagnous  FDJ.fr04h 47' 09"+  00:19:43 =33,745  km/h

80  Rudy Molard  Cofidis – Solutions Crédits04h 47' 09"+  00:19:43 =33,745  km/h

81  Jérémy Roy  FDJ.fr04h 47' 09"+  00:19:43 =33,745  km/h

82  Roy Curvers  Giant-Shimano04h 47' 09"+  00:19:43 =33,745  km/h

83  Perrig Quemeneur  Europcar04h 47' 09"+  00:19:43 =33,745  km/h

84  Imanol Erviti  Movistar04h 47' 09"+  00:19:43 =33,745  km/h

85  Simon Gerrans  Orica-GreenEDGE04h 47' 09"+  00:19:43 =33,745  km/h

86  Simon Clarke  Orica-GreenEDGE04h 47' 09"+  00:19:43 =33,745  km/h

87  Rubén Plaza  Movistar04h 47' 09"+  00:19:43 =33,745  km/h

88  Markel Irizar  Trek Factory Racing04h 47' 09"+  00:19:43 =33,745  km/h

89  Matteo Montaguti  AG2R La Mondiale04h 47' 09"+  00:19:43 =33,745  km/h

90  David Lopez  Sky Procycling04h 47' 16"+  00:19:50 =33,732  km/h

91  Michael Albasini  Orica-GreenEDGE04h 47' 40"+  00:20:14 =33,685  km/h

92  Jesus Herrada  Movistar04h 47' 40"+  00:20:14 =33,685  km/h

93  Peter Sagan  Cannondale Pro Cycling04h 49' 57"+  00:22:31 =33,420  km/h

94  Marco Marcato  Cannondale Pro Cycling04h 49' 59"+  00:22:33 =33,416  km/h

95  Alessandro De Marchi  Cannondale Pro Cycling04h 49' 59"+  00:22:33 =33,416  km/h

96  Lars Boom  Belkin Pro Cycling04h 50' 07"+  00:22:41 =33,400  km/h

97  Alex Howes  Garmin Sharp04h 50' 07"+  00:22:41 =33,400  km/h

98  Jack Bauer  Garmin Sharp04h 50' 07"+  00:22:41 =33,400  km/h

99  Dmitriy Gruzdev  Astana Pro Team04h 50' 35"+  00:23:09 =33,347  km/h

100  Matteo Trentin  Omega Pharma – Quick Step04h 51' 27"+  00:24:01 =33,248  km/h

101  Alessandro Vanotti  Astana Pro Team04h 53' 30"+  00:26:04 =33,015  km/h

102  Andriy Grivko  Astana Pro Team04h 55' 05"+  00:27:39 =32,838  km/h

103  Bartosz Huzarski  NetApp – Endura04h 55' 05"+  00:27:39 =32,838  km/h

104  Rafał Majka  Saxo Bank-Tinkoff Bank04h 56' 00"+  00:28:34 =32,736  km/h

105  Michael Rogers  Saxo Bank-Tinkoff Bank04h 56' 06"+  00:28:40 =32,725  km/h

106  Nicolas Roche  Saxo Bank-Tinkoff Bank04h 56' 06"+  00:28:40 =32,725  km/h

107  Koen De Kort  Giant-Shimano04h 56' 06"+  00:28:40 =32,725  km/h

108  Luke Durbridge  Orica-GreenEDGE04h 56' 06"+  00:28:40 =32,725  km/h

109  Christian Meier  Orica-GreenEDGE04h 56' 06"+  00:28:40 =32,725  km/h

110  Sébastien Reichenbach  IAM Cycling04h 56' 06"+  00:28:40 =32,725  km/h

111  Julien Simon  Cofidis – Solutions Crédits04h 56' 06"+  00:28:40 =32,725  km/h

112  Gregory Rast  Trek Factory Racing04h 56' 09"+  00:28:43 =32,720  km/h

113  Paul Voss  NetApp – Endura04h 56' 09"+  00:28:43 =32,720  km/h

114  Fabio Sabatini  Cannondale Pro Cycling04h 56' 14"+  00:28:48 =32,711  km/h

115  Jürgen Roelandts  Lotto-Belisol04h 56' 14"+  00:28:48 =32,711  km/h

116  Arnaud Gérard  Bretagne-Séché Environnement04h 56' 14"+  00:28:48 =32,711  km/h

117  Florian Guillou  Bretagne-Séché Environnement04h 56' 14"+  00:28:48 =32,711  km/h

118  Bryan Coquard  Europcar04h 56' 14"+  00:28:48 =32,711  km/h

119  Lieuwe Westra  Astana Pro Team04h 56' 14"+  00:28:48 =32,711  km/h

120  Tom Leezer  Belkin Pro Cycling04h 56' 14"+  00:28:48 =32,711  km/h

121  Heinrich Haussler  IAM Cycling04h 56' 14"+  00:28:48 =32,711  km/h

122  Yohann Gène  Europcar04h 56' 19"+  00:28:53 =32,702  km/h

123  Kévin Reza  Europcar04h 56' 19"+  00:28:53 =32,702  km/h

124  Florian Vachon  Bretagne-Séché Environnement04h 56' 19"+  00:28:53 =32,702  km/h

125  Alexander Porsev  Katusha04h 56' 27"+  00:29:01 =32,687  km/h

126  Armindo Fonseca  Bretagne-Séché Environnement04h 56' 42"+  00:29:16 =32,659  km/h

127  Reto Hollenstein  IAM Cycling04h 56' 42"+  00:29:16 =32,659  km/h

128  Anthony Delaplace  Bretagne-Séché Environnement04h 56' 42"+  00:29:16 =32,659  km/h

129  Maarten Wynants  Belkin Pro Cycling04h 56' 49"+  00:29:23 =32,646  km/h

130  Albert Timmer  Giant-Shimano04h 56' 53"+  00:29:27 =32,639  km/h

131  Kristjan Koren  Cannondale Pro Cycling04h 57' 09"+  00:29:43 =32,610  km/h

132  Matteo Tosatto  Saxo Bank-Tinkoff Bank04h 57' 15"+  00:29:49 =32,599  km/h

133  José Mendes  NetApp – Endura04h 57' 53"+  00:30:27 =32,530  km/h

134  Jérôme Pineau  IAM Cycling04h 58' 03"+  00:30:37 =32,511  km/h

135  Daniel Oss  BMC04h 58' 05"+  00:30:39 =32,508  km/h

136  Cyril Lemoine  Cofidis – Solutions Crédits04h 58' 05"+  00:30:39 =32,508  km/h

137  Davide Cimolai  Lampre-Merida04h 58' 07"+  00:30:41 =32,504  km/h

138  Sérgio Paulinho  Saxo Bank-Tinkoff Bank04h 58' 11"+  00:30:45 =32,497  km/h

139  Gatis Smukulis  Katusha04h 58' 13"+  00:30:47 =32,493  km/h

140  Jean-Marc Bideau  Bretagne-Séché Environnement04h 58' 13"+  00:30:47 =32,493  km/h

141  John Degenkolb  Giant-Shimano04h 58' 27"+  00:31:01 =32,468  km/h

142  André Greipel  Lotto-Belisol04h 58' 43"+  00:31:17 =32,439  km/h

143  Matthew Busche  Trek Factory Racing04h 58' 51"+  00:31:25 =32,424  km/h

144  Marcus Burghardt  BMC04h 59' 26"+  00:32:00 =32,361  km/h

145  Daniele Bennati  Saxo Bank-Tinkoff Bank04h 59' 55"+  00:32:29 =32,309  km/h

146  Michael Mørkøv  Saxo Bank-Tinkoff Bank04h 59' 55"+  00:32:29 =32,309  km/h

147  Sebastian Langeveld  Garmin Sharp04h 59' 55"+  00:32:29 =32,309  km/h

148  William  Bonnet  FDJ.fr04h 59' 55"+  00:32:29 =32,309  km/h

149  Alessandro Petacchi  Omega Pharma – Quick Step04h 59' 55"+  00:32:29 =32,309  km/h

150  Mickael Delage  FDJ.fr04h 59' 55"+  00:32:29 =32,309  km/h

151  Benoît Jarrier  Bretagne-Séché Environnement04h 59' 55"+  00:32:29 =32,309  km/h

152  Cédric Pineau  FDJ.fr04h 59' 55"+  00:32:29 =32,309  km/h

153  Maciej Bodnar  Cannondale Pro Cycling04h 59' 55"+  00:32:29 =32,309  km/h

154  Zakkari Dempster  NetApp – Endura04h 59' 55"+  00:32:29 =32,309  km/h

155  Marcel Kittel  Giant-Shimano04h 59' 55"+  00:32:29 =32,309  km/h

156  Romain Feillu  Bretagne-Séché Environnement04h 59' 55"+  00:32:29 =32,309  km/h

157  Dries Devenyns  Giant-Shimano04h 59' 55"+  00:32:29 =32,309  km/h

158  Janier Acevedo  Garmin Sharp04h 59' 55"+  00:32:29 =32,309  km/h

159  Arnaud Démare  FDJ.fr04h 59' 55"+  00:32:29 =32,309  km/h

160  Samuel Dumoulin  AG2R La Mondiale04h 59' 55"+  00:32:29 =32,309  km/h

161  Beñat Intxausti  Movistar04h 59' 55"+  00:32:29 =32,309  km/h

162  Ramūnas Navardauskas  Garmin Sharp04h 59' 55"+  00:32:29 =32,309  km/h

163  Tom Veelers  Giant-Shimano04h 59' 55"+  00:32:29 =32,309  km/h

164  Elia Viviani  Cannondale Pro Cycling04h 59' 55"+  00:32:29 =32,309  km/h

165  Bernhard Eisel  Sky Procycling04h 59' 55"+  00:32:29 =32,309  km/h

166  Svein Tuft  Orica-GreenEDGE04h 59' 55"+  00:32:29 =32,309  km/h

167  Niki Terpstra  Omega Pharma – Quick Step04h 59' 55"+  00:32:29 =32,309  km/h

168  Danny Pate  Sky Procycling04h 59' 55"+  00:32:29 =32,309  km/h

169  Jean-Marc Marino  Cannondale Pro Cycling04h 59' 55"+  00:32:29 =32,309  km/h

170  Vladimir Isaichev  Katusha04h 59' 55"+  00:32:29 =32,309  km/h

171  Mark Renshaw  Omega Pharma – Quick Step04h 59' 55"+  00:32:29 =32,309  km/h

172  Alexander Kristoff  Katusha04h 59' 55"+  00:32:29 =32,309  km/h

173  Roger Kluge  IAM Cycling04h 59' 55"+  00:32:29 =32,309  km/h

174  Luca Paolini  Katusha04h 59' 55"+  00:32:29 =32,309  km/h

175  Marcel Sieberg  Lotto-Belisol04h 59' 55"+  00:32:29 =32,309  km/h

176  Cheng Ji  Giant-Shimano04h 59' 55"+  00:32:29 =32,309  km/h

177  Simon Yates  Orica-GreenEDGE04h 59' 55"+  00:32:29 =32,309  km/h

178  Adrien Petit  Cofidis – Solutions Crédits05h 00' 13"+  00:32:47 =32,277  km/h

179  Andreas Schillinger  NetApp – Endura05h 10' 32"+  00:43:06 =31,204  km/h

180  Tiago Machado  NetApp – Endura05h 10' 32"+  00:43:06 =31,204  km/h


Withdrawls: 3
 RiderTeamReason
31   Alberto Contador Saxo Bank-Tinkoff BankDid not finish
54   Edward King Cannondale Pro CyclingDid not finish
185   Mathew Hayman Orica-GreenEDGEDid not finish
Todays birthdays.

1900 • Guy Bariffi
1901 • Alfonso Piccin
1934 • Jacques Champion
1936 • Raúl Rey
1960 • Marco Groppo
1963 • Stephan Joho
1975 • Alain Turicchia
1995 • Laurens De Plus

 

Optimized for Chrome - Edge
and Opera browsers.